Time;durP1;ratioP1;P1;durP2;ratioP2;P2;SDS_P1;SDS_P2;PMS_P1;PMS_P2;Temp;Humidity;BMP_temperature;BMP_pressure;BME280_temperature;BME280_humidity;BME280_pressure;Samples;Min_cycle;Max_cycle;Signal;HPM_P1;HPM_P2
2022/03/03 00:01:05;;;;;;;38.15;20.75;;;;;;;;;;4840407;29;20068;-75
2022/03/03 00:03:31;;;;;;;39.20;20.05;;;;;;;;;;4840039;29;20493;-75
2022/03/03 00:05:57;;;;;;;40.85;22.15;;;;;;;;;;4854005;29;20046;-75
2022/03/03 00:08:23;;;;;;;40.50;22.13;;;;;;;;;;4847608;29;20038;-75
2022/03/03 00:10:49;;;;;;;38.88;21.10;;;;;;;;;;4855006;29;20865;-75
2022/03/03 00:13:15;;;;;;;39.97;21.83;;;;;;;;;;4857786;29;20033;-75
2022/03/03 00:15:41;;;;;;;37.10;21.23;;;;;;;;;;4846748;29;20046;-74
2022/03/03 00:18:07;;;;;;;40.25;21.00;;;;;;;;;;4840185;29;20065;-75
2022/03/03 00:20:33;;;;;;;34.85;22.80;;;;;;;;;;4849981;29;20042;-75
2022/03/03 00:22:59;;;;;;;36.88;22.55;;;;;;;;;;4858716;29;20216;-74
2022/03/03 00:25:25;;;;;;;43.92;22.92;;;;;;;;;;4855901;29;20059;-75
2022/03/03 00:27:51;;;;;;;36.15;20.67;;;;;;;;;;4847077;29;20523;-75
2022/03/03 00:30:18;;;;;;;38.47;20.95;;;;;;;;;;4849978;29;20030;-75
2022/03/03 00:32:44;;;;;;;34.42;20.00;;;;;;;;;;4858579;29;20366;-75
2022/03/03 00:35:10;;;;;;;33.53;19.48;;;;;;;;;;4848498;29;20046;-76
2022/03/03 00:37:36;;;;;;;27.92;17.75;;;;;;;;;;4847236;29;20037;-75
2022/03/03 00:40:04;;;;;;;30.95;18.50;;;;;;;;;;4839367;29;20385;-74
2022/03/03 00:42:30;;;;;;;30.08;18.38;;;;;;;;;;4858278;29;20040;-75
2022/03/03 00:44:56;;;;;;;36.00;18.33;;;;;;;;;;4857626;29;20129;-75
2022/03/03 00:47:22;;;;;;;27.15;15.70;;;;;;;;;;4857782;29;20521;-75
2022/03/03 00:49:48;;;;;;;30.13;16.55;;;;;;;;;;4858335;29;20216;-75
2022/03/03 00:52:14;;;;;;;28.40;15.65;;;;;;;;;;4843262;29;20134;-75
2022/03/03 00:54:40;;;;;;;30.27;16.65;;;;;;;;;;4851412;29;20038;-75
2022/03/03 00:57:06;;;;;;;29.85;16.52;;;;;;;;;;4857529;29;20480;-75
2022/03/03 00:59:32;;;;;;;33.47;17.00;;;;;;;;;;4857832;29;20070;-75
2022/03/03 01:01:58;;;;;;;30.02;17.90;;;;;;;;;;4850982;29;20037;-75
2022/03/03 01:04:25;;;;;;;38.80;19.17;;;;;;;;;;4846496;29;20042;-75
2022/03/03 01:06:51;;;;;;;32.67;18.15;;;;;;;;;;4857308;29;20476;-75
2022/03/03 01:09:17;;;;;;;29.73;17.23;;;;;;;;;;4857902;29;20044;-75
2022/03/03 01:11:43;;;;;;;26.42;15.98;;;;;;;;;;4855787;29;20388;-75
2022/03/03 01:14:09;;;;;;;34.08;16.95;;;;;;;;;;4858104;29;20045;-75
2022/03/03 01:16:35;;;;;;;30.35;17.67;;;;;;;;;;4854630;29;20145;-75
2022/03/03 01:19:01;;;;;;;29.38;14.95;;;;;;;;;;4838874;29;20068;-75
2022/03/03 01:21:27;;;;;;;27.55;15.85;;;;;;;;;;4838703;29;20041;-75
2022/03/03 01:23:53;;;;;;;29.70;15.13;;;;;;;;;;4852334;29;20047;-75
2022/03/03 01:26:19;;;;;;;29.70;16.35;;;;;;;;;;4839061;29;20038;-75
2022/03/03 01:28:45;;;;;;;27.50;15.13;;;;;;;;;;4855355;29;20561;-75
2022/03/03 01:31:11;;;;;;;26.33;13.95;;;;;;;;;;4857409;29;20624;-75
2022/03/03 01:33:37;;;;;;;25.42;13.55;;;;;;;;;;4857097;29;20051;-75
2022/03/03 01:36:03;;;;;;;23.52;13.13;;;;;;;;;;4842234;29;20037;-75
2022/03/03 01:38:29;;;;;;;24.95;13.60;;;;;;;;;;4849080;29;20041;-75
2022/03/03 01:40:56;;;;;;;25.42;12.48;;;;;;;;;;4857191;29;20449;-75
2022/03/03 01:43:21;;;;;;;23.30;13.45;;;;;;;;;;4853093;29;20045;-75
2022/03/03 01:45:48;;;;;;;23.77;13.10;;;;;;;;;;4857279;29;20404;-75
2022/03/03 01:48:14;;;;;;;20.60;11.93;;;;;;;;;;4856670;29;20045;-75
2022/03/03 01:50:40;;;;;;;22.50;13.38;;;;;;;;;;4843135;29;20030;-75
2022/03/03 01:53:06;;;;;;;22.67;13.45;;;;;;;;;;4841212;29;20037;-75
2022/03/03 01:55:32;;;;;;;22.45;12.75;;;;;;;;;;4854196;29;20112;-75
2022/03/03 01:58:00;;;;;;;21.38;13.43;;;;;;;;;;4854114;29;20048;-75
2022/03/03 02:00:26;;;;;;;24.58;13.20;;;;;;;;;;4860362;29;20045;-75
2022/03/03 02:02:52;;;;;;;21.30;12.95;;;;;;;;;;4861236;29;20033;-75
2022/03/03 02:05:18;;;;;;;20.52;11.55;;;;;;;;;;4860924;29;20034;-75
2022/03/03 02:07:44;;;;;;;20.98;11.50;;;;;;;;;;4846504;29;20070;-75
2022/03/03 02:10:10;;;;;;;20.15;11.20;;;;;;;;;;4860248;29;20496;-75
2022/03/03 02:12:36;;;;;;;19.30;11.32;;;;;;;;;;4850802;29;20726;-75
2022/03/03 02:15:03;;;;;;;21.00;9.60;;;;;;;;;;4850536;29;20149;-75
2022/03/03 02:17:29;;;;;;;16.05;9.30;;;;;;;;;;4860262;29;20057;-75
2022/03/03 02:19:56;;;;;;;15.45;7.72;;;;;;;;;;4860152;29;20633;-75
2022/03/03 02:22:22;;;;;;;17.27;7.88;;;;;;;;;;4860289;29;20041;-75
2022/03/03 02:24:48;;;;;;;15.75;8.15;;;;;;;;;;4860108;29;20042;-76
2022/03/03 02:27:14;;;;;;;14.10;8.10;;;;;;;;;;4846496;29;20120;-75
2022/03/03 02:29:40;;;;;;;14.77;7.72;;;;;;;;;;4841747;29;20118;-75
2022/03/03 02:32:07;;;;;;;17.70;8.75;;;;;;;;;;4841853;29;20053;-75
2022/03/03 02:34:33;;;;;;;29.20;9.73;;;;;;;;;;4841934;29;20038;-75
2022/03/03 02:36:59;;;;;;;19.02;10.55;;;;;;;;;;4859212;29;20033;-75
2022/03/03 02:39:26;;;;;;;17.33;9.77;;;;;;;;;;4860179;29;20061;-75
2022/03/03 02:41:52;;;;;;;20.67;11.07;;;;;;;;;;4843902;29;20041;-75
2022/03/03 02:44:18;;;;;;;18.48;9.70;;;;;;;;;;4841804;29;20158;-75
2022/03/03 02:46:44;;;;;;;18.05;9.02;;;;;;;;;;4846157;29;20420;-75
2022/03/03 02:49:10;;;;;;;18.45;9.73;;;;;;;;;;4840768;29;20105;-74
2022/03/03 02:51:36;;;;;;;20.25;8.93;;;;;;;;;;4851044;29;20588;-75
2022/03/03 02:54:02;;;;;;;17.48;9.40;;;;;;;;;;4856965;29;20033;-75
2022/03/03 02:56:28;;;;;;;16.63;8.95;;;;;;;;;;4850894;29;20492;-75
2022/03/03 02:58:54;;;;;;;21.05;10.70;;;;;;;;;;4841978;29;20048;-75
2022/03/03 03:01:20;;;;;;;19.73;9.23;;;;;;;;;;4846902;29;20075;-75
2022/03/03 03:03:46;;;;;;;16.83;8.85;;;;;;;;;;4860239;29;20498;-75
2022/03/03 03:06:16;;;;;;;13.95;8.68;;;;;;;;;;4846398;29;20065;-75
2022/03/03 03:08:42;;;;;;;18.48;8.63;;;;;;;;;;4844963;29;20037;-75
2022/03/03 03:11:09;;;;;;;16.05;8.38;;;;;;;;;;4841118;29;20038;-75
2022/03/03 03:13:35;;;;;;;13.55;7.88;;;;;;;;;;4856565;29;20034;-75
2022/03/03 03:16:01;;;;;;;17.20;8.07;;;;;;;;;;4859434;29;20033;-75
2022/03/03 03:18:27;;;;;;;19.95;10.70;;;;;;;;;;4844543;29;20049;-75
2022/03/03 03:20:53;;;;;;;18.13;10.55;;;;;;;;;;4851092;29;20089;-75
2022/03/03 03:23:20;;;;;;;20.85;11.48;;;;;;;;;;4856613;29;20037;-75
2022/03/03 03:25:47;;;;;;;18.02;9.23;;;;;;;;;;4859476;29;20056;-75
2022/03/03 03:28:17;;;;;;;17.40;9.05;;;;;;;;;;4843667;29;20038;-75
2022/03/03 03:30:43;;;;;;;15.90;8.27;;;;;;;;;;4847384;29;20116;-75
2022/03/03 03:33:09;;;;;;;20.90;8.63;;;;;;;;;;4844947;29;20042;-75
2022/03/03 03:35:36;;;;;;;18.50;8.68;;;;;;;;;;4841116;29;20187;-75
2022/03/03 03:38:02;;;;;;;19.73;10.27;;;;;;;;;;4856066;29;20029;-75
2022/03/03 03:40:29;;;;;;;18.25;9.27;;;;;;;;;;4859314;29;20053;-75
2022/03/03 03:42:55;;;;;;;15.45;9.60;;;;;;;;;;4851687;29;20129;-75
2022/03/03 03:45:20;;;;;;;16.23;8.73;;;;;;;;;;4859355;29;20117;-75
2022/03/03 03:47:48;;;;;;;18.15;9.25;;;;;;;;;;4858859;29;20524;-75
2022/03/03 03:50:14;;;;;;;22.00;8.85;;;;;;;;;;4859436;29;20126;-75
2022/03/03 03:52:41;;;;;;;16.23;9.30;;;;;;;;;;4858493;29;20041;-75
2022/03/03 03:55:08;;;;;;;19.85;9.35;;;;;;;;;;4855624;29;20040;-75
2022/03/03 03:57:35;;;;;;;18.40;8.65;;;;;;;;;;4859145;29;20045;-75
2022/03/03 04:00:01;;;;;;;17.13;9.18;;;;;;;;;;4854919;29;20536;-75
2022/03/03 04:02:27;;;;;;;16.75;9.20;;;;;;;;;;4851208;29;20468;-75
2022/03/03 04:04:53;;;;;;;17.30;9.85;;;;;;;;;;4844410;29;20074;-75
2022/03/03 04:07:19;;;;;;;19.13;10.18;;;;;;;;;;4858827;29;20045;-75
2022/03/03 04:09:46;;;;;;;17.90;9.25;;;;;;;;;;4858983;29;20033;-75
2022/03/03 04:12:12;;;;;;;25.80;10.00;;;;;;;;;;4844981;29;20041;-75
2022/03/03 04:14:38;;;;;;;18.25;9.73;;;;;;;;;;4858207;29;20109;-75
2022/03/03 04:17:04;;;;;;;22.10;11.18;;;;;;;;;;4853429;29;20038;-75
2022/03/03 04:19:30;;;;;;;23.05;11.10;;;;;;;;;;4848253;29;20044;-75
2022/03/03 04:21:56;;;;;;;23.50;12.10;;;;;;;;;;4858305;29;20417;-74
2022/03/03 04:24:22;;;;;;;23.40;11.93;;;;;;;;;;4852537;29;20041;-75
2022/03/03 04:26:48;;;;;;;22.45;11.02;;;;;;;;;;4852091;29;20085;-75
2022/03/03 04:29:14;;;;;;;23.73;12.48;;;;;;;;;;4845859;29;20041;-75
2022/03/03 04:31:40;;;;;;;23.33;11.63;;;;;;;;;;4840313;29;20078;-75
2022/03/03 04:34:06;;;;;;;24.92;11.73;;;;;;;;;;4840443;29;20042;-75
2022/03/03 04:36:32;;;;;;;22.27;11.00;;;;;;;;;;4849262;29;20033;-75
2022/03/03 04:38:58;;;;;;;19.73;10.07;;;;;;;;;;4858633;29;20057;-75
2022/03/03 04:41:24;;;;;;;20.17;10.55;;;;;;;;;;4857794;29;20036;-75
2022/03/03 04:43:50;;;;;;;23.92;12.13;;;;;;;;;;4851040;29;20049;-75
2022/03/03 04:46:16;;;;;;;24.27;11.55;;;;;;;;;;4840050;29;20034;-75
2022/03/03 04:48:42;;;;;;;20.95;10.75;;;;;;;;;;4839704;29;20042;-75
2022/03/03 04:51:09;;;;;;;24.55;12.40;;;;;;;;;;4841340;29;20049;-75
2022/03/03 04:53:35;;;;;;;21.38;11.25;;;;;;;;;;4849732;29;20050;-75
2022/03/03 04:56:01;;;;;;;24.63;11.50;;;;;;;;;;4839779;29;20041;-75
2022/03/03 04:58:27;;;;;;;26.48;12.93;;;;;;;;;;4844303;29;20043;-75
2022/03/03 05:00:53;;;;;;;21.83;12.05;;;;;;;;;;4854404;29;20038;-75
2022/03/03 05:03:19;;;;;;;22.75;12.75;;;;;;;;;;4841508;29;20041;-75
2022/03/03 05:05:45;;;;;;;25.10;12.25;;;;;;;;;;4842342;29;20456;-75
2022/03/03 05:08:11;;;;;;;22.08;12.35;;;;;;;;;;4856859;29;20038;-75
2022/03/03 05:10:37;;;;;;;25.10;12.20;;;;;;;;;;4857807;29;20029;-75
2022/03/03 05:13:03;;;;;;;23.13;12.43;;;;;;;;;;4839422;29;20038;-75
2022/03/03 05:15:29;;;;;;;22.95;11.88;;;;;;;;;;4850540;29;20038;-75
2022/03/03 05:17:58;;;;;;;23.98;12.90;;;;;;;;;;4856753;29;20108;-75
2022/03/03 05:20:24;;;;;;;24.13;14.15;;;;;;;;;;4857762;29;20060;-75
2022/03/03 05:22:50;;;;;;;30.02;15.50;;;;;;;;;;4857371;29;20391;-75
2022/03/03 05:25:16;;;;;;;25.98;13.48;;;;;;;;;;4857712;29;20033;-75
2022/03/03 05:27:42;;;;;;;28.38;13.05;;;;;;;;;;4851142;29;20049;-74
2022/03/03 05:30:09;;;;;;;25.30;12.13;;;;;;;;;;4852848;29;20070;-74
2022/03/03 05:32:36;;;;;;;21.75;11.77;;;;;;;;;;4839222;29;20042;-74
2022/03/03 05:35:02;;;;;;;24.42;11.13;;;;;;;;;;4839210;29;20026;-74
2022/03/03 05:37:28;;;;;;;23.75;13.10;;;;;;;;;;4845001;29;20113;-74
2022/03/03 05:39:54;;;;;;;26.77;12.02;;;;;;;;;;4850335;29;20098;-74
2022/03/03 05:42:22;;;;;;;22.95;11.82;;;;;;;;;;4842789;29;20045;-74
2022/03/03 05:44:48;;;;;;;25.83;12.20;;;;;;;;;;4857588;29;20061;-74
2022/03/03 05:47:15;;;;;;;25.25;12.07;;;;;;;;;;4845310;29;20046;-75
2022/03/03 05:49:41;;;;;;;22.08;12.15;;;;;;;;;;4846757;29;20033;-74
2022/03/03 05:52:09;;;;;;;23.73;12.63;;;;;;;;;;4846462;29;20038;-75
2022/03/03 05:54:35;;;;;;;26.30;13.15;;;;;;;;;;4856482;29;20617;-74
2022/03/03 05:57:02;;;;;;;26.10;11.50;;;;;;;;;;4857456;29;20476;-74
2022/03/03 05:59:30;;;;;;;23.95;12.02;;;;;;;;;;4853096;29;20086;-74
2022/03/03 06:01:57;;;;;;;23.55;12.27;;;;;;;;;;4850089;29;20082;-74
2022/03/03 06:04:26;;;;;;;31.58;14.35;;;;;;;;;;4838485;29;20030;-74
2022/03/03 06:07:00;;;;;;;29.75;12.40;;;;;;;;;;4854741;29;20033;-74
2022/03/03 06:09:28;;;;;;;22.77;13.48;;;;;;;;;;4857128;29;20429;-75
2022/03/03 06:12:18;;;;;;;26.83;13.73;;;;;;;;;;4849466;29;20499;-74
2022/03/03 06:14:52;;;;;;;23.00;13.40;;;;;;;;;;4842962;29;20523;-74
2022/03/03 06:17:19;;;;;;;24.15;13.35;;;;;;;;;;4847078;29;20082;-74
2022/03/03 06:19:46;;;;;;;23.38;12.80;;;;;;;;;;4844469;29;20045;-74
2022/03/03 06:22:12;;;;;;;35.88;15.75;;;;;;;;;;4856934;29;20037;-74
2022/03/03 06:24:38;;;;;;;30.17;14.75;;;;;;;;;;4856936;29;20166;-74
2022/03/03 06:27:05;;;;;;;22.92;12.38;;;;;;;;;;4848086;29;20037;-74
2022/03/03 06:29:33;;;;;;;30.20;14.32;;;;;;;;;;4843383;29;20081;-74
2022/03/03 06:31:59;;;;;;;23.15;13.02;;;;;;;;;;4845936;29;20689;-74
2022/03/03 06:34:25;;;;;;;26.25;13.50;;;;;;;;;;4854905;29;20034;-74
2022/03/03 06:36:51;;;;;;;29.25;15.80;;;;;;;;;;4850954;29;20037;-74
2022/03/03 06:39:18;;;;;;;27.77;14.60;;;;;;;;;;4851092;29;20400;-74
2022/03/03 06:41:44;;;;;;;29.17;14.10;;;;;;;;;;4850571;29;20042;-74
2022/03/03 06:44:10;;;;;;;30.40;13.77;;;;;;;;;;4850245;29;20432;-74
2022/03/03 06:46:36;;;;;;;21.95;13.07;;;;;;;;;;4853559;29;20033;-74
2022/03/03 06:49:02;;;;;;;29.67;13.23;;;;;;;;;;4859172;29;20337;-74
2022/03/03 06:51:33;;;;;;;33.58;15.63;;;;;;;;;;4847309;29;20113;-74
2022/03/03 06:54:02;;;;;;;35.80;14.90;;;;;;;;;;4849350;29;20130;-75
2022/03/03 06:56:30;;;;;;;39.17;15.65;;;;;;;;;;4851311;29;20038;-74
2022/03/03 06:58:57;;;;;;;29.02;15.45;;;;;;;;;;4842718;29;20045;-74
2022/03/03 07:01:24;;;;;;;33.90;14.85;;;;;;;;;;4845991;29;20166;-74
2022/03/03 07:03:50;;;;;;;32.97;14.98;;;;;;;;;;4850068;29;20045;-74
2022/03/03 07:06:16;;;;;;;29.63;16.00;;;;;;;;;;4857239;29;20033;-74
2022/03/03 07:08:43;;;;;;;31.27;13.75;;;;;;;;;;4860338;29;20044;-74
2022/03/03 07:11:09;;;;;;;38.55;20.15;;;;;;;;;;4859928;29;20399;-74
2022/03/03 07:13:35;;;;;;;41.78;17.98;;;;;;;;;;4860234;29;20460;-74
2022/03/03 07:16:16;;;;;;;30.02;15.15;;;;;;;;;;4859976;29;20482;-74
2022/03/03 07:18:43;;;;;;;32.70;15.52;;;;;;;;;;4850263;29;20164;-74
2022/03/03 07:21:25;;;;;;;37.47;19.58;;;;;;;;;;4856290;29;20069;-74
2022/03/03 07:23:59;;;;;;;41.85;18.27;;;;;;;;;;4843145;29;20435;-74
2022/03/03 07:26:25;;;;;;;33.30;14.38;;;;;;;;;;4847924;29;20084;-74
2022/03/03 07:28:52;;;;;;;37.50;14.73;;;;;;;;;;4859765;29;20498;-74
2022/03/03 07:31:22;;;;;;;30.08;13.30;;;;;;;;;;4857295;29;20044;-73
2022/03/03 07:33:53;;;;;;;33.28;13.65;;;;;;;;;;4854108;29;20045;-74
2022/03/03 07:36:24;;;;;;;30.60;13.43;;;;;;;;;;4854152;29;20045;-74
2022/03/03 07:38:57;;;;;;;30.63;14.93;;;;;;;;;;4858501;29;20321;-74
2022/03/03 07:41:25;;;;;;;27.25;15.30;;;;;;;;;;4854806;29;20073;-74
2022/03/03 07:43:51;;;;;;;33.60;14.35;;;;;;;;;;4851907;29;20096;-74
2022/03/03 07:46:17;;;;;;;32.90;15.93;;;;;;;;;;4859295;29;20033;-74
2022/03/03 07:48:45;;;;;;;29.45;16.33;;;;;;;;;;4854136;29;20116;-74
2022/03/03 07:51:11;;;;;;;33.65;16.50;;;;;;;;;;4854804;29;20459;-74
2022/03/03 07:53:37;;;;;;;36.28;16.75;;;;;;;;;;4854686;29;20570;-74
2022/03/03 07:56:05;;;;;;;39.15;18.30;;;;;;;;;;4840884;29;20038;-74
2022/03/03 07:58:39;;;;;;;38.22;17.25;;;;;;;;;;4846318;29;20049;-74
2022/03/03 08:01:06;;;;;;;34.83;16.42;;;;;;;;;;4851113;29;20052;-74
2022/03/03 08:03:32;;;;;;;29.88;15.77;;;;;;;;;;4847250;29;20156;-74
2022/03/03 08:05:58;;;;;;;28.15;13.68;;;;;;;;;;4853877;29;20025;-74
2022/03/03 08:08:26;;;;;;;33.20;14.98;;;;;;;;;;4854586;29;20741;-74
2022/03/03 08:10:55;;;;;;;37.42;16.35;;;;;;;;;;4854791;29;20541;-74
2022/03/03 08:13:22;;;;;;;34.42;15.15;;;;;;;;;;4853892;29;20077;-74
2022/03/03 08:15:48;;;;;;;34.55;15.48;;;;;;;;;;4845601;29;20041;-74
2022/03/03 08:18:14;;;;;;;33.50;16.15;;;;;;;;;;4845542;29;20141;-74
2022/03/03 08:20:41;;;;;;;30.13;15.20;;;;;;;;;;4848997;29;20044;-74
2022/03/03 08:23:07;;;;;;;25.60;13.50;;;;;;;;;;4852558;29;20133;-74
2022/03/03 08:25:34;;;;;;;42.03;14.30;;;;;;;;;;4846602;29;20070;-74
2022/03/03 08:28:02;;;;;;;32.22;13.65;;;;;;;;;;4846378;29;20041;-74
2022/03/03 08:30:29;;;;;;;28.27;13.30;;;;;;;;;;4850452;29;20033;-74
2022/03/03 08:33:00;;;;;;;27.02;12.38;;;;;;;;;;4847736;29;20049;-74
2022/03/03 08:35:27;;;;;;;28.58;13.43;;;;;;;;;;4854031;29;20026;-74
2022/03/03 08:38:26;;;;;;;25.17;11.98;;;;;;;;;;4839580;29;20140;-74
2022/03/03 08:40:53;;;;;;;22.58;11.55;;;;;;;;;;4808904;29;20396;-74
2022/03/03 08:43:22;;;;;;;17.65;7.88;;;;;;;;;;4848366;29;20089;-74
2022/03/03 08:45:49;;;;;;;14.93;8.02;;;;;;;;;;4844310;29;20034;-74
2022/03/03 08:48:16;;;;;;;20.55;8.07;;;;;;;;;;4852456;29;20045;-74
2022/03/03 08:50:42;;;;;;;18.52;8.80;;;;;;;;;;4844072;29;20100;-74
2022/03/03 08:53:09;;;;;;;24.77;8.95;;;;;;;;;;4854681;29;20048;-74
2022/03/03 08:55:36;;;;;;;18.42;7.60;;;;;;;;;;4846879;29;20805;-74
2022/03/03 08:58:02;;;;;;;18.52;9.13;;;;;;;;;;4850931;29;20692;-74
2022/03/03 09:00:28;;;;;;;23.77;9.15;;;;;;;;;;4856487;29;20037;-74
2022/03/03 09:02:55;;;;;;;16.63;8.73;;;;;;;;;;4846705;29;20045;-74
2022/03/03 09:05:21;;;;;;;28.27;9.15;;;;;;;;;;4857616;29;20038;-74
2022/03/03 09:07:47;;;;;;;20.73;9.68;;;;;;;;;;4839749;29;20045;-74
2022/03/03 09:10:14;;;;;;;21.33;9.20;;;;;;;;;;4855621;29;20030;-74
2022/03/03 09:12:41;;;;;;;19.40;9.82;;;;;;;;;;4845071;29;20053;-74
2022/03/03 09:15:08;;;;;;;20.75;9.05;;;;;;;;;;4839587;29;20034;-74
2022/03/03 09:17:34;;;;;;;18.48;9.30;;;;;;;;;;4851669;29;20062;-74
2022/03/03 09:20:01;;;;;;;22.15;10.38;;;;;;;;;;4853821;29;20053;-74
2022/03/03 09:22:27;;;;;;;20.98;9.43;;;;;;;;;;4853590;29;20669;-74
2022/03/03 09:24:54;;;;;;;21.88;9.55;;;;;;;;;;4847099;29;20038;-74
2022/03/03 09:27:20;;;;;;;26.08;12.20;;;;;;;;;;4854539;29;20041;-74
2022/03/03 09:29:47;;;;;;;18.70;10.70;;;;;;;;;;4845772;29;20025;-74
2022/03/03 09:32:13;;;;;;;22.65;11.60;;;;;;;;;;4845428;29;20037;-74
2022/03/03 09:34:39;;;;;;;23.95;11.75;;;;;;;;;;4850434;29;20116;-73
2022/03/03 09:37:05;;;;;;;19.92;10.07;;;;;;;;;;4848877;29;20045;-74
2022/03/03 09:39:31;;;;;;;19.75;10.25;;;;;;;;;;4856423;29;20498;-74
2022/03/03 09:41:58;;;;;;;19.85;10.30;;;;;;;;;;4856409;29;20037;-74
2022/03/03 09:44:25;;;;;;;21.50;11.60;;;;;;;;;;4857116;29;20065;-75
2022/03/03 09:46:51;;;;;;;20.38;9.65;;;;;;;;;;4856402;29;20029;-74
2022/03/03 09:49:17;;;;;;;19.88;9.05;;;;;;;;;;4840461;29;20443;-74
2022/03/03 09:51:44;;;;;;;18.98;9.70;;;;;;;;;;4854289;29;20590;-74
2022/03/03 09:54:10;;;;;;;18.40;10.07;;;;;;;;;;4832078;29;20489;-74
2022/03/03 09:56:39;;;;;;;21.33;9.93;;;;;;;;;;4851107;29;20098;-74
2022/03/03 09:59:07;;;;;;;20.30;9.63;;;;;;;;;;4849391;29;20045;-74
2022/03/03 10:01:33;;;;;;;21.08;11.15;;;;;;;;;;4857299;29;20037;-74
2022/03/03 10:04:15;;;;;;;23.00;11.27;;;;;;;;;;4855504;29;20563;-74
2022/03/03 10:06:41;;;;;;;22.33;11.13;;;;;;;;;;4843488;29;20040;-74
2022/03/03 10:09:08;;;;;;;21.02;11.38;;;;;;;;;;4846542;29;20435;-74
2022/03/03 10:11:38;;;;;;;24.38;11.40;;;;;;;;;;4854401;29;20097;-74
2022/03/03 10:14:04;;;;;;;19.73;10.75;;;;;;;;;;4851049;29;20041;-74
2022/03/03 10:16:31;;;;;;;22.38;10.50;;;;;;;;;;4844931;29;20045;-74
2022/03/03 10:19:01;;;;;;;20.25;10.18;;;;;;;;;;4858940;29;20061;-74
2022/03/03 10:21:28;;;;;;;22.02;10.55;;;;;;;;;;4852959;29;20093;-75
2022/03/03 10:23:54;;;;;;;18.75;9.60;;;;;;;;;;4859248;29;20029;-74
2022/03/03 10:26:20;;;;;;;19.02;9.57;;;;;;;;;;4842008;29;20050;-74
2022/03/03 10:28:49;;;;;;;22.80;10.45;;;;;;;;;;4842815;29;20134;-74
2022/03/03 10:31:20;;;;;;;22.15;11.07;;;;;;;;;;4855225;29;20034;-74
2022/03/03 10:33:47;;;;;;;21.88;12.93;;;;;;;;;;4860508;29;20065;-74
2022/03/03 10:36:13;;;;;;;24.42;13.52;;;;;;;;;;4857900;29;20050;-74
2022/03/03 10:38:46;;;;;;;22.42;12.95;;;;;;;;;;4856813;29;20044;-74
2022/03/03 10:41:31;;;;;;;28.20;13.35;;;;;;;;;;4853504;29;20033;-74
2022/03/03 10:43:58;;;;;;;24.75;13.68;;;;;;;;;;4853537;29;20041;-74
2022/03/03 10:46:24;;;;;;;21.58;13.18;;;;;;;;;;4856503;29;20037;-74
2022/03/03 10:48:50;;;;;;;26.13;13.40;;;;;;;;;;4853798;29;20073;-74
2022/03/03 10:51:19;;;;;;;26.08;14.23;;;;;;;;;;4842703;29;20034;-74
2022/03/03 10:53:45;;;;;;;28.23;14.95;;;;;;;;;;4843182;29;20041;-74
2022/03/03 10:56:14;;;;;;;27.50;15.20;;;;;;;;;;4847390;29;20124;-75
2022/03/03 10:58:43;;;;;;;25.98;13.98;;;;;;;;;;4854519;29;20033;-74
2022/03/03 11:01:09;;;;;;;25.70;14.80;;;;;;;;;;4856946;29;20042;-74
2022/03/03 11:03:36;;;;;;;24.77;13.65;;;;;;;;;;4857888;29;20037;-74
2022/03/03 11:06:03;;;;;;;26.55;13.18;;;;;;;;;;4846787;29;20034;-74
2022/03/03 11:08:30;;;;;;;23.33;13.43;;;;;;;;;;4849146;29;20046;-74
2022/03/03 11:10:56;;;;;;;25.83;14.13;;;;;;;;;;4845880;29;20532;-74
2022/03/03 11:13:22;;;;;;;22.90;13.13;;;;;;;;;;4858073;29;20480;-74
2022/03/03 11:15:51;;;;;;;24.20;14.77;;;;;;;;;;4859532;29;20041;-74
2022/03/03 11:18:18;;;;;;;23.83;15.32;;;;;;;;;;4854615;29;20106;-74
2022/03/03 11:20:46;;;;;;;31.80;16.05;;;;;;;;;;4845935;29;20041;-74
2022/03/03 11:23:12;;;;;;;23.10;13.57;;;;;;;;;;4847907;29;20169;-74
2022/03/03 11:25:39;;;;;;;30.05;14.98;;;;;;;;;;4853160;29;20061;-74
2022/03/03 11:28:07;;;;;;;27.08;15.35;;;;;;;;;;4859500;29;20036;-74
2022/03/03 11:30:34;;;;;;;32.38;16.35;;;;;;;;;;4844442;29;20590;-74
2022/03/03 11:33:19;;;;;;;30.40;15.88;;;;;;;;;;4847075;29;20117;-74
2022/03/03 11:35:49;;;;;;;30.30;17.42;;;;;;;;;;4853867;29;20041;-74
2022/03/03 11:38:16;;;;;;;32.25;18.88;;;;;;;;;;4851966;29;20088;-74
2022/03/03 11:40:56;;;;;;;25.77;15.57;;;;;;;;;;4858259;29;20065;-74
2022/03/03 11:43:22;;;;;;;25.42;15.98;;;;;;;;;;4848722;29;20049;-74
2022/03/03 11:45:53;;;;;;;30.98;17.13;;;;;;;;;;4840241;29;20034;-74
2022/03/03 11:48:20;;;;;;;31.60;18.88;;;;;;;;;;4841080;29;20097;-74
2022/03/03 11:50:47;;;;;;;28.50;18.05;;;;;;;;;;4854602;29;20029;-75
2022/03/03 11:53:12;;;;;;;31.98;19.85;;;;;;;;;;4845409;29;20050;-74
2022/03/03 11:55:38;;;;;;;27.77;17.63;;;;;;;;;;4851203;29;20046;-74
2022/03/03 11:58:25;;;;;;;33.70;19.58;;;;;;;;;;4858860;29;20116;-74
2022/03/03 12:01:01;;;;;;;31.67;20.15;;;;;;;;;;4846499;29;20041;-74
2022/03/03 12:03:31;;;;;;;27.38;17.50;;;;;;;;;;4843203;29;20086;-73
2022/03/03 12:06:04;;;;;;;34.97;19.20;;;;;;;;;;4855444;29;20533;-74
2022/03/03 12:08:31;;;;;;;27.95;17.70;;;;;;;;;;4843233;29;20045;-74
2022/03/03 12:11:06;;;;;;;31.13;17.70;;;;;;;;;;4846072;29;20407;-74
2022/03/03 12:13:35;;;;;;;33.38;19.67;;;;;;;;;;4851503;29;20054;-74
2022/03/03 12:16:19;;;;;;;26.15;18.08;;;;;;;;;;4857751;29;20487;-74
2022/03/03 12:18:47;;;;;;;30.27;19.02;;;;;;;;;;4850905;29;20509;-74
2022/03/03 12:21:22;;;;;;;32.15;19.70;;;;;;;;;;4851972;29;20056;-74
2022/03/03 12:23:48;;;;;;;33.97;21.45;;;;;;;;;;4844998;29;20045;-74
2022/03/03 12:26:14;;;;;;;35.10;22.85;;;;;;;;;;4848939;29;20038;-74
2022/03/03 12:28:40;;;;;;;35.03;22.88;;;;;;;;;;4858940;29;20413;-74
2022/03/03 12:31:20;;;;;;;37.83;21.67;;;;;;;;;;4852512;29;20044;-74
2022/03/03 12:33:59;;;;;;;37.75;22.50;;;;;;;;;;4854902;29;20045;-74
2022/03/03 12:36:25;;;;;;;37.20;22.20;;;;;;;;;;4849242;29;20033;-74
2022/03/03 12:38:57;;;;;;;35.30;21.92;;;;;;;;;;4843518;29;20086;-74
2022/03/03 12:41:24;;;;;;;37.20;23.20;;;;;;;;;;4854353;29;20048;-74
2022/03/03 12:43:51;;;;;;;37.58;23.85;;;;;;;;;;4845576;29;20065;-74
2022/03/03 12:46:17;;;;;;;34.45;22.73;;;;;;;;;;4852429;29;20041;-74
2022/03/03 12:48:45;;;;;;;38.97;22.92;;;;;;;;;;4858295;29;20085;-74
2022/03/03 12:51:11;;;;;;;35.33;21.17;;;;;;;;;;4848921;29;20033;-74
2022/03/03 12:53:43;;;;;;;36.25;23.38;;;;;;;;;;4858042;29;20059;-74
2022/03/03 12:56:09;;;;;;;;;;;;;;;;;;4853833;29;20042;-74
2022/03/03 12:58:35;;;;;;;30.02;19.90;;;;;;;;;;4830752;29;20375;-74
2022/03/03 13:01:02;;;;;;;35.42;21.65;;;;;;;;;;4850241;29;20042;-74
2022/03/03 13:03:32;;;;;;;29.33;21.13;;;;;;;;;;4853522;29;20802;-74
2022/03/03 13:05:58;;;;;;;32.95;21.27;;;;;;;;;;4835935;29;20034;-74
2022/03/03 13:08:24;;;;;;;36.03;21.73;;;;;;;;;;4856377;29;20037;-73
2022/03/03 13:10:51;;;;;;;32.70;22.08;;;;;;;;;;4848008;29;20373;-74
2022/03/03 13:13:17;;;;;;;32.28;20.38;;;;;;;;;;4849286;29;20042;-74
2022/03/03 13:15:44;;;;;;;35.17;22.55;;;;;;;;;;4839666;29;20038;-74
2022/03/03 13:18:20;;;;;;;33.28;22.45;;;;;;;;;;4852332;29;20064;-74
2022/03/03 13:21:06;;;;;;;31.10;19.65;;;;;;;;;;4842073;29;20034;-74
2022/03/03 13:23:33;;;;;;;30.80;21.20;;;;;;;;;;4853933;29;20129;-74
2022/03/03 13:26:11;;;;;;;30.80;20.30;;;;;;;;;;4849029;29;20046;-74
2022/03/03 13:28:44;;;;;;;37.95;22.98;;;;;;;;;;4843337;29;20037;-74
2022/03/03 13:31:11;;;;;;;31.42;19.90;;;;;;;;;;4845536;29;20076;-74
2022/03/03 13:33:41;;;;;;;36.00;21.63;;;;;;;;;;4842797;29;20437;-74
2022/03/03 13:36:11;;;;;;;29.38;18.40;;;;;;;;;;4847236;29;20049;-74
2022/03/03 13:38:39;;;;;;;38.72;19.95;;;;;;;;;;4846014;29;20082;-74
2022/03/03 13:41:20;;;;;;;33.08;20.30;;;;;;;;;;4856465;29;20609;-74
2022/03/03 13:43:46;;;;;;;33.00;20.90;;;;;;;;;;4843274;29;20149;-74
2022/03/03 13:46:12;;;;;;;30.42;18.85;;;;;;;;;;4852867;29;20078;-74
2022/03/03 13:48:38;;;;;;;34.30;21.67;;;;;;;;;;4856264;29;20702;-74
2022/03/03 13:51:04;;;;;;;29.55;19.52;;;;;;;;;;4857122;29;20093;-74
2022/03/03 13:53:32;;;;;;;30.33;19.48;;;;;;;;;;4847143;29;20037;-74
2022/03/03 13:56:04;;;;;;;40.30;21.08;;;;;;;;;;4852448;29;20061;-74
2022/03/03 13:58:30;;;;;;;37.15;21.23;;;;;;;;;;4857216;29;20042;-74
2022/03/03 14:00:56;;;;;;;34.65;20.88;;;;;;;;;;4856995;29;20056;-74
2022/03/03 14:03:32;;;;;;;30.20;18.70;;;;;;;;;;4849703;29;20370;-74
2022/03/03 14:06:06;;;;;;;30.33;19.95;;;;;;;;;;4852438;29;20064;-74
2022/03/03 14:08:49;;;;;;;30.63;18.73;;;;;;;;;;4846294;29;20434;-75
2022/03/03 14:11:25;;;;;;;44.33;20.90;;;;;;;;;;4854418;29;20030;-74
2022/03/03 14:13:54;;;;;;;32.63;21.05;;;;;;;;;;4856193;29;20041;-74
2022/03/03 14:16:21;;;;;;;36.97;21.70;;;;;;;;;;4855930;29;20046;-74
2022/03/03 14:18:48;;;;;;;36.28;20.20;;;;;;;;;;4845089;29;20404;-74
2022/03/03 14:21:14;;;;;;;37.78;20.88;;;;;;;;;;4849990;29;20121;-74